BKBT2: Red River, Burkburnett

Data processed at Thu Jan 04 2018 23:43


All information presented herein is the property of the government of the United States of America and may be revised or deleted at any time without prior notice.
Dissemination of this information without the expressed written consent of the Public Affairs Office, Tulsa District U.S. Army Corps of Engineers is strictly prohibited.
These data are gathered electronically and, as presented, have not undergone any form of quality control. These data are not guaranteed to be valid or correct.
Go to home page.
Go to station list.

Upstream stations:

Downstream station:
Previous Day
Next Day
Current Day
    
SHEF ID:       BKBT2     Red Rv nr Burkburnett, TX
STATION TYPE:  

               PRECIP     STAGE  RIV-FLOW  BAT-LOAD
                   in        ft       cfs      volt
              Ccp-Rev   Ccp-Rev   Ccp-Rev   Ccp-Rev
(US/Central)
01/02 00:00      0.00      4.20       246     12.49
01/02 01:00      0.00      4.16       234     12.41
01/02 02:00      0.00      4.10       216     12.41
01/02 03:00      0.00      4.09       213     12.41
01/02 04:00      0.00      4.08       210     12.41
01/02 05:00      0.00      4.07       208     12.41
01/02 06:00      0.00      4.07       208     12.41
01/02 07:00      0.00      4.06       205     12.41
01/02 08:00      0.00      4.07       208     12.41
01/02 09:00      0.00      4.09       213     12.41
01/02 10:00      0.00      4.09       213     12.73
01/02 11:00      0.00      4.15       231     13.05
01/02 12:00      0.00      4.13       225     13.53
01/02 13:00      0.00      4.14       228     13.76
01/02 14:00      0.00      4.09       213     13.76
01/02 15:00      0.00      4.13       225     13.76
01/02 16:00      0.00      4.24       259     13.68
01/02 17:00      0.00      4.35       296     13.68
01/02 18:00      0.00      4.34       293     13.05
01/02 19:00      0.00      4.32       286     12.73
01/02 20:00      0.00      4.29       276     12.57
01/02 21:00      0.00      4.26       266     12.57
01/02 22:00      0.00      4.23       256     12.49
01/02 23:00      0.00      4.22       253     12.49